Weather at Flugplatz Hahnweide

Public forecast

Using degrees Celsius for public forecast. Weather courtesy of forecast.io.

Closest aviation weather report (METAR) to Flugplatz Hahnweide

Closest report is Stuttgart Airport, 9.0 nm (16.6 km) WNW. Retrieved 2020/09/20 04:20 UTC (0 seconds ago):

EDDS 200420Z 05002KT CAVOK 10/09 Q1015 NOSIG

Closest aviation forecast (TAF) to Flugplatz Hahnweide

Closest forecast is Stuttgart Airport, 9.0 nm (16.6 km) WNW. Retrieved 2020-09-20 00:27 UTC (4 hours ago):

TAF TAF EDDS 192300Z 2000/2024 VRB03KT CAVOK TEMPO 2012/2018 02005KT